createdAt,value
2018-03-02T00:01:30.341Z,43.47
2018-03-02T00:03:57.914Z,36.50
2018-03-02T00:06:25.542Z,36.57
2018-03-02T00:08:53.101Z,48.63
2018-03-02T00:11:20.632Z,31.30
2018-03-02T00:13:48.186Z,38.13
2018-03-02T00:16:15.704Z,42.70
2018-03-02T00:18:43.277Z,31.90
2018-03-02T00:21:10.872Z,44.13
2018-03-02T00:23:38.706Z,39.67
2018-03-02T00:26:06.312Z,41.93
2018-03-02T00:28:33.929Z,34.40
2018-03-02T00:31:01.788Z,30.20
2018-03-02T00:33:29.360Z,35.77
2018-03-02T00:35:56.879Z,36.50
2018-03-02T00:38:24.435Z,33.83
2018-03-02T00:40:51.967Z,38.80
2018-03-02T00:43:19.544Z,37.10
2018-03-02T00:45:47.091Z,33.73
2018-03-02T00:48:14.655Z,37.43
2018-03-02T00:50:42.366Z,29.30
2018-03-02T00:53:09.913Z,43.80
2018-03-02T00:55:37.452Z,38.53
2018-03-02T00:58:05.023Z,43.13
2018-03-02T01:00:32.566Z,36.27
2018-03-02T01:03:00.087Z,35.73
2018-03-02T01:05:27.647Z,41.33
2018-03-02T01:07:55.406Z,43.23
2018-03-02T01:10:22.945Z,32.30
2018-03-02T01:12:50.468Z,36.33
2018-03-02T01:15:18.026Z,39.40
2018-03-02T01:17:45.576Z,43.73
2018-03-02T01:20:13.128Z,49.53
2018-03-02T01:22:40.643Z,33.57
2018-03-02T01:25:08.199Z,31.57
2018-03-02T01:27:35.725Z,39.30
2018-03-02T01:30:03.358Z,40.27
2018-03-02T01:32:31.220Z,49.40
2018-03-02T01:34:58.774Z,47.60
2018-03-02T01:37:26.327Z,37.33
2018-03-02T01:39:53.897Z,38.70
2018-03-02T01:42:21.414Z,41.93
2018-03-02T01:44:49.321Z,43.23
2018-03-02T01:47:16.909Z,38.33
2018-03-02T01:49:44.470Z,50.80
2018-03-02T01:52:12.012Z,47.53
2018-03-02T01:54:39.562Z,44.27
2018-03-02T01:57:07.333Z,40.80
2018-03-02T01:59:35.010Z,47.03
2018-03-02T02:02:02.599Z,39.67
2018-03-02T02:04:30.165Z,47.20
2018-03-02T02:06:57.687Z,44.03
2018-03-02T02:09:25.312Z,44.50
2018-03-02T02:11:52.867Z,37.07
2018-03-02T02:14:20.413Z,44.93
2018-03-02T02:16:47.933Z,36.40
2018-03-02T02:19:15.808Z,53.13
2018-03-02T02:21:43.333Z,37.40
2018-03-02T02:24:10.869Z,37.03
2018-03-02T02:26:38.678Z,35.13
2018-03-02T02:29:06.239Z,34.57
2018-03-02T02:31:33.824Z,42.63
2018-03-02T02:34:01.415Z,49.07
2018-03-02T02:36:28.951Z,48.97
2018-03-02T02:38:56.564Z,29.00
2018-03-02T02:41:24.452Z,33.83
2018-03-02T02:43:51.981Z,45.07
2018-03-02T02:46:19.523Z,35.20
2018-03-02T02:48:47.100Z,39.83
2018-03-02T02:51:14.635Z,36.90
2018-03-02T02:53:42.198Z,47.90
2018-03-02T02:56:09.765Z,48.23
2018-03-02T02:58:37.289Z,42.57
2018-03-02T03:01:04.812Z,38.17
2018-03-02T03:03:32.423Z,42.03
2018-03-02T03:05:59.929Z,51.43
2018-03-02T03:08:27.725Z,37.00
2018-03-02T03:10:55.319Z,46.30
2018-03-02T03:13:22.846Z,35.60
2018-03-02T03:15:50.378Z,53.30
2018-03-02T03:18:17.951Z,39.50
2018-03-02T03:20:45.556Z,37.63
2018-03-02T03:23:13.078Z,60.83
2018-03-02T03:25:40.655Z,40.30
2018-03-02T03:28:08.192Z,52.27
2018-03-02T03:30:35.793Z,36.73
2018-03-02T03:33:03.383Z,40.80
2018-03-02T03:35:30.950Z,44.67
2018-03-02T03:37:58.476Z,49.60
2018-03-02T03:40:26.030Z,37.23
2018-03-02T03:42:53.547Z,39.87
2018-03-02T03:45:21.075Z,39.57
2018-03-02T03:47:48.634Z,41.03
2018-03-02T03:50:16.183Z,45.90
2018-03-02T03:52:43.774Z,38.30
2018-03-02T03:55:11.332Z,36.80
2018-03-02T03:57:38.884Z,40.93
2018-03-02T04:00:07.114Z,37.77
2018-03-02T04:02:34.984Z,39.43
2018-03-02T04:05:02.517Z,44.60
2018-03-02T04:07:30.306Z,41.60
2018-03-02T04:09:57.872Z,48.50
2018-03-02T04:12:25.402Z,45.00
2018-03-02T04:14:52.924Z,30.57
2018-03-02T04:17:20.493Z,40.80
2018-03-02T04:19:48.008Z,37.73
2018-03-02T04:22:15.559Z,46.90
2018-03-02T04:24:43.119Z,36.47
2018-03-02T04:27:10.646Z,36.73
2018-03-02T04:29:38.230Z,42.93
2018-03-02T04:32:06.008Z,41.20
2018-03-02T04:34:33.790Z,42.13
2018-03-02T04:37:01.314Z,42.73
2018-03-02T04:39:28.849Z,35.80
2018-03-02T04:41:56.370Z,38.13
2018-03-02T04:44:24.232Z,49.17
2018-03-02T04:46:51.797Z,48.33
2018-03-02T04:49:19.335Z,42.77
2018-03-02T04:51:46.859Z,48.27
2018-03-02T04:54:14.417Z,38.20
2018-03-02T04:56:41.934Z,47.40
2018-03-02T04:59:09.796Z,35.13
2018-03-02T05:01:37.357Z,40.43
2018-03-02T05:04:05.117Z,41.83
2018-03-02T05:06:32.663Z,37.70
2018-03-02T05:09:00.980Z,45.37
2018-03-02T05:11:28.506Z,40.73
2018-03-02T05:13:56.164Z,49.37
2018-03-02T05:16:23.739Z,49.10
2018-03-02T05:18:51.263Z,37.53
2018-03-02T05:21:18.789Z,40.23
2018-03-02T05:23:46.349Z,36.47
2018-03-02T05:26:13.876Z,41.93
2018-03-02T05:28:41.429Z,39.83
2018-03-02T05:31:09.031Z,45.40
2018-03-02T05:33:36.626Z,42.27
2018-03-02T05:36:04.245Z,44.90
2018-03-02T05:38:32.095Z,46.10
2018-03-02T05:40:59.648Z,54.13
2018-03-02T05:43:27.166Z,49.03
2018-03-02T05:45:54.735Z,37.20
2018-03-02T05:48:22.286Z,41.47
2018-03-02T05:50:49.840Z,47.37
2018-03-02T05:53:17.401Z,44.77
2018-03-02T05:55:44.929Z,36.80
2018-03-02T05:58:12.459Z,63.33
2018-03-02T06:00:40.066Z,44.00
2018-03-02T06:03:07.581Z,47.60
2018-03-02T06:05:35.115Z,40.57
2018-03-02T06:08:02.682Z,33.20
2018-03-02T06:10:30.488Z,41.60
2018-03-02T06:12:58.083Z,47.67
2018-03-02T06:15:25.743Z,48.07
2018-03-02T06:17:53.266Z,43.50
2018-03-02T06:20:20.803Z,48.40
2018-03-02T06:22:48.353Z,38.07
2018-03-02T06:25:15.899Z,53.43
2018-03-02T06:27:43.471Z,35.33
2018-03-02T06:30:11.060Z,41.00
2018-03-02T06:32:38.626Z,55.90
2018-03-02T06:35:06.209Z,36.40
2018-03-02T06:37:33.782Z,41.50
2018-03-02T06:40:01.333Z,39.67
2018-03-02T06:42:29.194Z,50.17
2018-03-02T06:44:56.756Z,43.33
2018-03-02T06:47:24.353Z,46.70
2018-03-02T06:49:51.897Z,52.73
2018-03-02T06:52:19.439Z,44.30
2018-03-02T06:54:46.981Z,52.70
2018-03-02T06:57:14.524Z,39.10
2018-03-02T06:59:42.088Z,40.17
2018-03-02T07:02:09.667Z,48.37
2018-03-02T07:04:37.195Z,52.97
2018-03-02T07:07:04.787Z,49.57
2018-03-02T07:09:32.327Z,46.90
2018-03-02T07:12:00.190Z,38.20
2018-03-02T07:14:27.987Z,48.37
2018-03-02T07:16:55.763Z,42.07
2018-03-02T07:19:23.359Z,41.57
2018-03-02T07:21:50.977Z,48.27
2018-03-02T07:24:18.515Z,50.00
2018-03-02T07:26:46.028Z,45.93
2018-03-02T07:29:13.579Z,35.97
2018-03-02T07:31:41.104Z,44.17
2018-03-02T07:34:08.653Z,48.53
2018-03-02T07:36:36.217Z,38.40
2018-03-02T07:39:03.811Z,43.53
2018-03-02T07:41:31.388Z,45.30
2018-03-02T07:43:59.002Z,51.63
2018-03-02T07:46:26.549Z,45.33
2018-03-02T07:48:54.107Z,37.70
2018-03-02T07:51:21.690Z,40.67
2018-03-02T07:53:49.253Z,47.27
2018-03-02T07:56:16.826Z,43.97
2018-03-02T07:58:44.567Z,42.63
2018-03-02T08:01:12.731Z,45.77
2018-03-02T08:03:40.529Z,51.17
2018-03-02T08:06:08.173Z,44.23
2018-03-02T08:08:35.778Z,55.03
2018-03-02T08:11:03.634Z,51.47
2018-03-02T08:13:31.273Z,62.80
2018-03-02T08:15:58.858Z,49.57
2018-03-02T08:18:26.738Z,43.80
2018-03-02T08:20:54.390Z,50.50
2018-03-02T08:23:21.949Z,59.50
2018-03-02T08:25:49.844Z,52.27
2018-03-02T08:28:17.683Z,49.00
2018-03-02T08:30:45.256Z,48.17
2018-03-02T08:33:13.110Z,45.40
2018-03-02T08:35:40.705Z,44.03
2018-03-02T08:38:08.240Z,59.27
2018-03-02T08:40:35.768Z,54.07
2018-03-02T08:43:03.390Z,49.63
2018-03-02T08:45:30.940Z,52.97
2018-03-02T08:47:58.547Z,43.93
2018-03-02T08:50:26.284Z,54.40
2018-03-02T08:52:53.824Z,51.30
2018-03-02T08:55:21.608Z,53.73
2018-03-02T08:57:49.379Z,52.20
2018-03-02T09:00:17.231Z,67.43
2018-03-02T09:02:44.823Z,46.80
2018-03-02T09:05:12.412Z,46.07
2018-03-02T09:07:39.961Z,57.37
2018-03-02T09:10:07.570Z,55.73
2018-03-02T09:12:35.426Z,58.83
2018-03-02T09:15:03.060Z,64.83
2018-03-02T09:17:30.610Z,55.80
2018-03-02T09:19:58.231Z,56.53
2018-03-02T09:22:25.799Z,57.43
2018-03-02T09:24:53.446Z,39.60
2018-03-02T09:27:21.198Z,53.13
2018-03-02T09:29:49.068Z,53.80
2018-03-02T09:32:16.720Z,63.17
2018-03-02T09:34:44.284Z,56.00
2018-03-02T09:37:11.845Z,51.90
2018-03-02T09:39:39.766Z,57.93
2018-03-02T09:42:07.369Z,64.70
2018-03-02T09:44:34.986Z,68.80
2018-03-02T09:47:02.523Z,61.87
2018-03-02T09:49:30.090Z,51.40
2018-03-02T09:51:57.630Z,58.73
2018-03-02T09:54:25.182Z,52.63
2018-03-02T09:56:52.745Z,54.67
2018-03-02T09:59:20.660Z,52.30
2018-03-02T10:01:48.148Z,68.47
2018-03-02T10:04:15.735Z,61.07
2018-03-02T10:06:43.305Z,59.20
2018-03-02T10:09:12.296Z,54.60
2018-03-02T10:11:39.923Z,57.97
2018-03-02T10:14:07.555Z,63.00
2018-03-02T10:16:35.365Z,57.83
2018-03-02T10:19:03.242Z,59.97
2018-03-02T10:21:30.870Z,49.00
2018-03-02T10:23:58.448Z,53.73
2018-03-02T10:26:26.407Z,50.20
2018-03-02T10:28:54.057Z,65.00
2018-03-02T10:31:21.612Z,64.30
2018-03-02T10:33:49.231Z,64.83
2018-03-02T10:36:16.820Z,61.73
2018-03-02T10:38:44.362Z,59.50
2018-03-02T10:41:12.211Z,47.53
2018-03-02T10:43:39.890Z,70.77
2018-03-02T10:46:07.452Z,52.80
2018-03-02T10:48:35.021Z,59.83
2018-03-02T10:51:02.623Z,64.53
2018-03-02T10:53:30.158Z,59.83
2018-03-02T10:55:57.932Z,63.17
2018-03-02T10:58:25.630Z,61.37
2018-03-02T11:00:53.252Z,53.00
2018-03-02T11:03:22.792Z,73.80
2018-03-02T11:05:50.428Z,56.73
2018-03-02T11:08:17.944Z,62.60
2018-03-02T11:10:45.748Z,71.00
2018-03-02T11:13:15.063Z,49.27
2018-03-02T11:15:42.643Z,54.27
2018-03-02T11:18:10.264Z,48.37
2018-03-02T11:20:37.794Z,53.33
2018-03-02T11:23:05.584Z,52.97
2018-03-02T11:25:33.202Z,51.50
2018-03-02T11:28:00.970Z,51.83
2018-03-02T11:30:28.502Z,58.40
2018-03-02T11:32:56.073Z,54.23
2018-03-02T11:35:23.722Z,54.07
2018-03-02T11:37:51.247Z,62.50
2018-03-02T11:40:18.844Z,52.03
2018-03-02T11:42:46.373Z,53.50
2018-03-02T11:45:14.016Z,55.77
2018-03-02T11:47:41.620Z,54.40
2018-03-02T11:50:09.245Z,48.63
2018-03-02T11:52:37.095Z,65.90
2018-03-02T11:55:04.680Z,57.40
2018-03-02T11:57:32.203Z,58.37
2018-03-02T11:59:59.771Z,50.20
2018-03-02T12:02:27.375Z,56.77
2018-03-02T12:04:54.904Z,60.43
2018-03-02T12:07:22.414Z,61.63
2018-03-02T12:09:49.962Z,56.37
2018-03-02T12:12:17.494Z,60.30
2018-03-02T12:14:44.997Z,55.43
2018-03-02T12:17:12.902Z,57.37
2018-03-02T12:19:40.422Z,60.23
2018-03-02T12:22:08.142Z,58.20
2018-03-02T12:24:35.793Z,64.77
2018-03-02T12:27:03.342Z,57.70
2018-03-02T12:29:30.912Z,51.37
2018-03-02T12:31:58.990Z,61.90
2018-03-02T12:34:26.570Z,61.87
2018-03-02T12:36:54.155Z,51.77
2018-03-02T12:39:21.734Z,56.07
2018-03-02T12:41:49.302Z,53.53
2018-03-02T12:44:16.854Z,54.77
2018-03-02T12:46:44.450Z,62.50
2018-03-02T12:49:12.077Z,52.30
2018-03-02T12:51:39.605Z,53.33
2018-03-02T12:54:07.164Z,56.67
2018-03-02T12:56:34.703Z,62.07
2018-03-02T12:59:02.234Z,64.23
2018-03-02T13:01:29.801Z,73.53
2018-03-02T13:03:57.392Z,69.07
2018-03-02T13:06:24.922Z,52.00
2018-03-02T13:08:52.506Z,64.17
2018-03-02T13:11:20.126Z,79.53
2018-03-02T13:13:47.883Z,61.20
2018-03-02T13:16:15.443Z,70.40
2018-03-02T13:18:43.351Z,64.70
2018-03-02T13:21:10.883Z,64.80
2018-03-02T13:23:38.527Z,81.80
2018-03-02T13:26:06.447Z,64.03
2018-03-02T13:28:45.795Z,70.73
2018-03-02T13:31:13.348Z,60.63
2018-03-02T13:33:52.676Z,60.80
2018-03-02T13:36:20.527Z,61.07
2018-03-02T13:38:48.078Z,73.13
2018-03-02T13:44:19.656Z,64.37
2018-03-02T13:46:47.257Z,63.93
2018-03-02T13:49:26.748Z,69.83
2018-03-02T13:51:54.416Z,67.43
2018-03-02T13:54:21.972Z,66.77
2018-03-02T13:59:51.815Z,66.83
2018-03-02T14:02:31.411Z,67.07
2018-03-02T14:05:01.027Z,70.30
2018-03-02T14:07:28.645Z,57.30
2018-03-02T14:09:56.293Z,59.87
2018-03-02T14:12:23.891Z,54.57
2018-03-02T14:14:51.562Z,60.27
2018-03-02T14:17:19.204Z,54.93
2018-03-02T14:19:46.742Z,60.23
2018-03-02T14:22:14.334Z,51.57
2018-03-02T14:24:41.964Z,59.50
2018-03-02T14:27:09.512Z,60.00
2018-03-02T14:29:37.446Z,53.70
2018-03-02T14:32:05.017Z,59.37
2018-03-02T14:34:32.655Z,59.23
2018-03-02T14:37:00.346Z,45.83
2018-03-02T14:39:28.222Z,64.17
2018-03-02T14:41:55.898Z,61.10
2018-03-02T14:44:23.954Z,47.50
2018-03-02T14:46:52.126Z,52.73
2018-03-02T14:49:20.174Z,60.17
2018-03-02T14:51:50.974Z,61.13
2018-03-02T14:54:18.722Z,58.60
2018-03-02T14:56:46.465Z,59.37
2018-03-02T14:59:14.220Z,61.10
2018-03-02T15:01:44.209Z,67.80
2018-03-02T15:04:14.719Z,53.77
2018-03-02T15:06:42.838Z,63.03
2018-03-02T15:09:11.208Z,58.87
2018-03-02T15:11:39.647Z,59.00
2018-03-02T15:14:10.347Z,60.07
2018-03-02T15:16:40.755Z,59.20
2018-03-02T15:19:23.751Z,54.23
2018-03-02T15:21:54.198Z,56.53
2018-03-02T15:24:26.273Z,58.13
2018-03-02T15:26:55.289Z,48.37
2018-03-02T15:29:23.858Z,47.93
2018-03-02T15:31:53.713Z,53.83
2018-03-02T15:34:23.139Z,56.43
2018-03-02T15:36:51.178Z,50.23
2018-03-02T15:39:19.296Z,58.73
2018-03-02T15:41:47.361Z,50.00
2018-03-02T15:44:15.395Z,60.57
2018-03-02T15:49:21.861Z,51.73
2018-03-02T15:51:52.935Z,50.80
2018-03-02T15:54:26.857Z,48.63
2018-03-02T15:56:57.141Z,38.93
2018-03-02T15:59:25.233Z,42.47
2018-03-02T16:01:53.304Z,50.77
2018-03-02T16:04:22.404Z,46.67
2018-03-02T16:06:50.574Z,47.93
2018-03-02T16:09:18.724Z,52.87
2018-03-02T16:11:47.001Z,51.97
2018-03-02T16:14:15.084Z,53.23
2018-03-02T16:16:42.950Z,45.33
2018-03-02T16:19:11.553Z,57.50
2018-03-02T16:21:39.450Z,47.50
2018-03-02T16:24:07.392Z,42.53
2018-03-02T16:26:35.391Z,44.10
2018-03-02T16:29:03.402Z,45.77
2018-03-02T16:31:31.291Z,50.47
2018-03-02T16:33:59.242Z,45.03
2018-03-02T16:36:27.152Z,41.33
2018-03-02T16:38:55.029Z,43.73
2018-03-02T16:41:25.501Z,38.13
2018-03-02T16:43:55.515Z,42.20
2018-03-02T16:46:23.385Z,39.07
2018-03-02T16:48:59.392Z,41.50
2018-03-02T16:51:28.033Z,40.57
2018-03-02T16:53:55.898Z,37.40
2018-03-02T16:56:28.257Z,44.37
2018-03-02T16:58:56.273Z,37.63
2018-03-02T17:01:23.870Z,43.10
2018-03-02T17:03:52.640Z,37.80
2018-03-02T17:06:20.431Z,42.13
2018-03-02T17:08:49.918Z,40.33
2018-03-02T17:11:17.929Z,44.63
2018-03-02T17:13:54.292Z,42.73
2018-03-02T17:16:22.548Z,37.60
2018-03-02T17:18:50.845Z,35.00
2018-03-02T17:21:18.837Z,44.63
2018-03-02T17:23:46.874Z,43.70
2018-03-02T17:26:14.817Z,47.73
2018-03-02T17:28:43.378Z,58.93
2018-03-02T17:31:11.351Z,41.23
2018-03-02T17:33:44.021Z,43.83
2018-03-02T17:36:12.300Z,35.00
2018-03-02T17:38:41.447Z,40.53
2018-03-02T17:41:12.176Z,40.70
2018-03-02T17:43:39.917Z,34.27
2018-03-02T17:46:07.501Z,35.43
2018-03-02T17:48:35.224Z,51.03
2018-03-02T17:51:07.464Z,34.93
2018-03-02T17:53:35.102Z,49.40
2018-03-02T17:56:04.184Z,39.80
2018-03-02T17:58:32.514Z,36.13
2018-03-02T18:01:04.748Z,41.13
2018-03-02T18:03:36.132Z,39.83
2018-03-02T18:06:12.396Z,49.77
2018-03-02T18:08:43.854Z,52.63
2018-03-02T18:11:15.466Z,39.67
2018-03-02T18:13:50.185Z,38.87
2018-03-02T18:18:57.701Z,34.70
2018-03-02T18:21:25.611Z,43.00
2018-03-02T18:24:01.901Z,42.97
2018-03-02T18:26:31.971Z,40.00
2018-03-02T18:29:01.659Z,49.73
2018-03-02T18:31:30.816Z,44.67
2018-03-02T18:34:03.991Z,51.80
2018-03-02T18:36:32.470Z,38.87
2018-03-02T18:39:00.488Z,47.37
2018-03-02T18:41:30.614Z,40.10
2018-03-02T18:43:58.842Z,40.70
2018-03-02T18:46:26.429Z,42.57
2018-03-02T18:48:54.326Z,36.87
2018-03-02T18:51:22.503Z,44.80
2018-03-02T18:53:50.112Z,50.77
2018-03-02T18:56:17.685Z,42.27
2018-03-02T18:58:45.604Z,41.23
2018-03-02T19:01:13.525Z,49.87
2018-03-02T19:03:41.714Z,42.40
2018-03-02T19:06:09.272Z,40.53
2018-03-02T19:08:37.119Z,39.53
2018-03-02T19:11:04.743Z,43.07
2018-03-02T19:13:32.309Z,53.33
2018-03-02T19:15:59.849Z,52.37
2018-03-02T19:18:27.419Z,49.13
2018-03-02T19:20:54.987Z,43.80
2018-03-02T19:23:22.652Z,43.80
2018-03-02T19:25:50.282Z,52.10
2018-03-02T19:28:17.839Z,48.30
2018-03-02T19:30:45.367Z,53.80
2018-03-02T19:33:12.966Z,47.60
2018-03-02T19:35:40.614Z,40.30
2018-03-02T19:38:08.183Z,51.07
2018-03-02T19:40:35.869Z,52.27
2018-03-02T19:43:03.420Z,46.33
2018-03-02T19:45:30.956Z,51.00
2018-03-02T19:47:58.622Z,57.17
2018-03-02T19:50:26.206Z,52.87
2018-03-02T19:52:53.755Z,53.10
2018-03-02T19:55:21.700Z,45.27
2018-03-02T19:57:49.255Z,59.07
2018-03-02T20:00:16.868Z,50.03
2018-03-02T20:02:44.489Z,42.57
2018-03-02T20:05:12.025Z,74.53
2018-03-02T20:07:41.567Z,42.80
2018-03-02T20:10:10.034Z,62.50
2018-03-02T20:12:37.583Z,57.97
2018-03-02T20:15:05.218Z,46.00
2018-03-02T20:17:32.913Z,59.83
2018-03-02T20:20:00.482Z,51.27
2018-03-02T20:22:28.191Z,62.60
2018-03-02T20:24:56.647Z,55.33
2018-03-02T20:27:24.274Z,54.53
2018-03-02T20:29:51.855Z,57.30
2018-03-02T20:32:19.506Z,50.80
2018-03-02T20:34:47.390Z,62.93
2018-03-02T20:37:15.126Z,60.23
2018-03-02T20:39:42.774Z,61.53
2018-03-02T20:42:14.050Z,59.93
2018-03-02T20:44:42.787Z,48.80
2018-03-02T20:47:12.014Z,65.90
2018-03-02T20:49:42.859Z,53.63
2018-03-02T20:52:11.376Z,69.77
2018-03-02T20:54:40.477Z,61.83
2018-03-02T20:57:08.724Z,63.00
2018-03-02T20:59:36.444Z,61.23
2018-03-02T21:02:06.260Z,44.03
2018-03-02T21:04:34.167Z,53.57
2018-03-02T21:07:02.302Z,56.30
2018-03-02T21:09:30.470Z,55.83
2018-03-02T21:11:58.399Z,61.23
2018-03-02T21:14:25.975Z,59.10
2018-03-02T21:16:53.631Z,60.23
2018-03-02T21:19:21.216Z,65.10
2018-03-02T21:21:48.782Z,52.77
2018-03-02T21:24:16.314Z,52.80
2018-03-02T21:26:43.838Z,64.67
2018-03-02T21:29:11.440Z,54.73
2018-03-02T21:31:39.388Z,64.67
2018-03-02T21:34:07.153Z,67.50
2018-03-02T21:36:34.854Z,57.93
2018-03-02T21:39:02.382Z,65.53
2018-03-02T21:41:30.017Z,51.10
2018-03-02T21:43:59.034Z,54.63
2018-03-02T21:46:27.952Z,48.50
2018-03-02T21:48:55.793Z,48.93
2018-03-02T21:51:23.386Z,44.80
2018-03-02T21:53:50.972Z,58.77
2018-03-02T21:56:18.580Z,76.43
2018-03-02T21:58:46.569Z,56.27
2018-03-02T22:01:14.490Z,46.83
2018-03-02T22:03:42.198Z,63.70
2018-03-02T22:06:10.433Z,52.13
2018-03-02T22:08:38.088Z,51.37
2018-03-02T22:11:05.623Z,58.33
2018-03-02T22:13:33.665Z,50.33
2018-03-02T22:16:01.261Z,52.97
2018-03-02T22:18:28.800Z,57.37
2018-03-02T22:20:56.436Z,52.87
2018-03-02T22:23:24.212Z,47.17
2018-03-02T22:25:51.767Z,54.77
2018-03-02T22:28:19.346Z,46.30
2018-03-02T22:30:47.397Z,48.83
2018-03-02T22:33:15.480Z,59.23
2018-03-02T22:35:43.761Z,50.10
2018-03-02T22:38:12.920Z,67.57
2018-03-02T22:40:40.861Z,52.23
2018-03-02T22:43:08.425Z,56.67
2018-03-02T22:45:36.254Z,61.40
2018-03-02T22:48:03.797Z,46.33
2018-03-02T22:50:31.400Z,56.20
2018-03-02T22:52:59.089Z,54.03
2018-03-02T22:55:26.728Z,69.23
2018-03-02T22:57:54.365Z,55.10
2018-03-02T23:00:21.899Z,45.20
2018-03-02T23:02:49.519Z,66.83
2018-03-02T23:05:17.182Z,50.47
2018-03-02T23:07:44.835Z,51.73
2018-03-02T23:10:12.680Z,53.47
2018-03-02T23:12:40.250Z,55.70
2018-03-02T23:15:07.889Z,54.87
2018-03-02T23:17:35.868Z,49.23
2018-03-02T23:20:03.450Z,55.60
2018-03-02T23:22:31.054Z,52.67
2018-03-02T23:24:58.760Z,52.63
2018-03-02T23:27:27.000Z,51.63
2018-03-02T23:29:54.626Z,50.50
2018-03-02T23:32:22.465Z,54.30
2018-03-02T23:34:50.050Z,56.57
2018-03-02T23:37:17.606Z,51.50
2018-03-02T23:39:45.144Z,54.80
2018-03-02T23:42:13.322Z,60.43
2018-03-02T23:44:40.861Z,52.60
2018-03-02T23:47:08.430Z,62.13
2018-03-02T23:49:35.977Z,57.83
2018-03-02T23:52:03.523Z,49.53
2018-03-02T23:54:31.332Z,49.27
2018-03-02T23:56:58.947Z,51.07
2018-03-02T23:59:27.216Z,50.40
